sensor_id;sensor_type;location;lat;lon;timestamp;temperature;humidity
22112;DHT22;11222;50.872;4.312;2023-08-12T00:01:24;22.10;99.90
22112;DHT22;11222;50.872;4.312;2023-08-12T00:03:50;22.10;99.90
22112;DHT22;11222;50.872;4.312;2023-08-12T00:06:16;22.00;99.90
22112;DHT22;11222;50.872;4.312;2023-08-12T00:08:42;21.90;99.90
22112;DHT22;11222;50.872;4.312;2023-08-12T00:11:08;21.90;99.90
22112;DHT22;11222;50.872;4.312;2023-08-12T00:13:33;21.90;99.90
22112;DHT22;11222;50.872;4.312;2023-08-12T00:15:59;21.90;99.90
22112;DHT22;11222;50.872;4.312;2023-08-12T00:18:25;21.90;99.90
22112;DHT22;11222;50.872;4.312;2023-08-12T00:20:50;22.00;99.90
22112;DHT22;11222;50.872;4.312;2023-08-12T00:23:16;22.00;99.90
22112;DHT22;11222;50.872;4.312;2023-08-12T00:25:42;22.00;99.90
22112;DHT22;11222;50.872;4.312;2023-08-12T00:28:08;21.90;99.90
22112;DHT22;11222;50.872;4.312;2023-08-12T00:30:34;21.90;99.90
22112;DHT22;11222;50.872;4.312;2023-08-12T00:32:59;21.90;99.90
22112;DHT22;11222;50.872;4.312;2023-08-12T00:35:25;21.90;99.90
22112;DHT22;11222;50.872;4.312;2023-08-12T00:37:51;21.80;99.90
22112;DHT22;11222;50.872;4.312;2023-08-12T00:40:16;21.80;99.90
22112;DHT22;11222;50.872;4.312;2023-08-12T00:42:42;21.80;99.90
22112;DHT22;11222;50.872;4.312;2023-08-12T00:45:11;21.80;99.90
22112;DHT22;11222;50.872;4.312;2023-08-12T00:47:40;21.90;99.90
22112;DHT22;11222;50.872;4.312;2023-08-12T00:50:08;22.00;99.90
22112;DHT22;11222;50.872;4.312;2023-08-12T00:52:34;22.10;99.90
22112;DHT22;11222;50.872;4.312;2023-08-12T00:55:00;22.10;99.90
22112;DHT22;11222;50.872;4.312;2023-08-12T00:57:25;22.00;99.90
22112;DHT22;11222;50.872;4.312;2023-08-12T00:59:51;21.90;99.90
22112;DHT22;11222;50.872;4.312;2023-08-12T01:02:18;21.90;99.90
22112;DHT22;11222;50.872;4.312;2023-08-12T01:04:44;22.00;99.90
22112;DHT22;11222;50.872;4.312;2023-08-12T01:07:09;22.00;99.90
22112;DHT22;11222;50.872;4.312;2023-08-12T01:09:35;22.00;99.90
22112;DHT22;11222;50.872;4.312;2023-08-12T01:12:18;21.90;99.90
22112;DHT22;11222;50.872;4.312;2023-08-12T01:15:07;21.80;99.90
22112;DHT22;11222;50.872;4.312;2023-08-12T01:17:38;21.70;99.90
22112;DHT22;11222;50.872;4.312;2023-08-12T01:20:06;21.60;99.90
22112;DHT22;11222;50.872;4.312;2023-08-12T01:22:41;21.50;99.90
22112;DHT22;11222;50.872;4.312;2023-08-12T01:25:09;21.60;99.90
22112;DHT22;11222;50.872;4.312;2023-08-12T01:27:35;21.50;99.90
22112;DHT22;11222;50.872;4.312;2023-08-12T01:30:02;21.50;99.90
22112;DHT22;11222;50.872;4.312;2023-08-12T01:32:55;21.60;99.90
22112;DHT22;11222;50.872;4.312;2023-08-12T01:35:36;21.50;99.90
22112;DHT22;11222;50.872;4.312;2023-08-12T01:38:06;21.60;99.90
22112;DHT22;11222;50.872;4.312;2023-08-12T01:40:35;21.60;99.90
22112;DHT22;11222;50.872;4.312;2023-08-12T01:43:02;21.60;99.90
22112;DHT22;11222;50.872;4.312;2023-08-12T01:45:30;21.60;99.90
22112;DHT22;11222;50.872;4.312;2023-08-12T01:47:57;21.70;99.90
22112;DHT22;11222;50.872;4.312;2023-08-12T01:50:23;21.70;99.90
22112;DHT22;11222;50.872;4.312;2023-08-12T01:52:49;21.80;99.90
22112;DHT22;11222;50.872;4.312;2023-08-12T01:55:15;21.90;99.90
22112;DHT22;11222;50.872;4.312;2023-08-12T01:57:40;21.90;99.90
22112;DHT22;11222;50.872;4.312;2023-08-12T02:00:07;21.90;99.90
22112;DHT22;11222;50.872;4.312;2023-08-12T02:02:33;22.00;99.90
22112;DHT22;11222;50.872;4.312;2023-08-12T02:04:59;22.10;99.90
22112;DHT22;11222;50.872;4.312;2023-08-12T02:07:25;22.20;99.90
22112;DHT22;11222;50.872;4.312;2023-08-12T02:09:50;22.20;99.90
22112;DHT22;11222;50.872;4.312;2023-08-12T02:12:16;22.20;99.90
22112;DHT22;11222;50.872;4.312;2023-08-12T02:14:42;22.20;99.90
22112;DHT22;11222;50.872;4.312;2023-08-12T02:17:07;22.10;99.90
22112;DHT22;11222;50.872;4.312;2023-08-12T02:19:34;22.10;99.90
22112;DHT22;11222;50.872;4.312;2023-08-12T02:22:01;22.10;99.90
22112;DHT22;11222;50.872;4.312;2023-08-12T02:24:27;22.00;99.90
22112;DHT22;11222;50.872;4.312;2023-08-12T02:26:53;21.90;99.90
22112;DHT22;11222;50.872;4.312;2023-08-12T02:29:18;21.90;99.90
22112;DHT22;11222;50.872;4.312;2023-08-12T02:31:44;21.90;99.90
22112;DHT22;11222;50.872;4.312;2023-08-12T02:34:10;21.90;99.90
22112;DHT22;11222;50.872;4.312;2023-08-12T02:36:36;21.70;99.90
22112;DHT22;11222;50.872;4.312;2023-08-12T02:39:01;21.70;99.90
22112;DHT22;11222;50.872;4.312;2023-08-12T02:41:27;21.70;99.90
22112;DHT22;11222;50.872;4.312;2023-08-12T02:43:53;21.70;99.90
22112;DHT22;11222;50.872;4.312;2023-08-12T02:46:18;21.70;99.90
22112;DHT22;11222;50.872;4.312;2023-08-12T02:48:45;21.70;99.90
22112;DHT22;11222;50.872;4.312;2023-08-12T02:51:11;21.60;99.90
22112;DHT22;11222;50.872;4.312;2023-08-12T02:53:36;21.50;99.90
22112;DHT22;11222;50.872;4.312;2023-08-12T02:56:02;21.40;99.90
22112;DHT22;11222;50.872;4.312;2023-08-12T02:58:28;21.50;99.90
22112;DHT22;11222;50.872;4.312;2023-08-12T03:00:54;21.50;99.90
22112;DHT22;11222;50.872;4.312;2023-08-12T03:03:20;21.60;99.90
22112;DHT22;11222;50.872;4.312;2023-08-12T03:05:47;21.50;99.90
22112;DHT22;11222;50.872;4.312;2023-08-12T03:08:13;21.50;99.90
22112;DHT22;11222;50.872;4.312;2023-08-12T03:10:39;21.50;99.90
22112;DHT22;11222;50.872;4.312;2023-08-12T03:13:04;21.50;99.90
22112;DHT22;11222;50.872;4.312;2023-08-12T03:15:30;21.50;99.90
22112;DHT22;11222;50.872;4.312;2023-08-12T03:17:56;21.40;99.90
22112;DHT22;11222;50.872;4.312;2023-08-12T03:20:22;21.30;99.90
22112;DHT22;11222;50.872;4.312;2023-08-12T03:22:48;21.30;99.90
22112;DHT22;11222;50.872;4.312;2023-08-12T03:25:14;21.20;99.90
22112;DHT22;11222;50.872;4.312;2023-08-12T03:27:41;21.10;99.90
22112;DHT22;11222;50.872;4.312;2023-08-12T03:30:07;21.10;99.90
22112;DHT22;11222;50.872;4.312;2023-08-12T03:32:33;20.90;99.90
22112;DHT22;11222;50.872;4.312;2023-08-12T03:34:58;20.90;99.90
22112;DHT22;11222;50.872;4.312;2023-08-12T03:37:25;20.90;99.90
22112;DHT22;11222;50.872;4.312;2023-08-12T03:39:51;20.90;99.90
22112;DHT22;11222;50.872;4.312;2023-08-12T03:42:17;20.90;99.90
22112;DHT22;11222;50.872;4.312;2023-08-12T03:44:44;21.00;99.90
22112;DHT22;11222;50.872;4.312;2023-08-12T03:47:10;21.00;99.90
22112;DHT22;11222;50.872;4.312;2023-08-12T03:49:36;21.00;99.90
22112;DHT22;11222;50.872;4.312;2023-08-12T03:52:02;21.00;99.90
22112;DHT22;11222;50.872;4.312;2023-08-12T03:54:28;20.90;99.90
22112;DHT22;11222;50.872;4.312;2023-08-12T03:56:54;20.80;99.90
22112;DHT22;11222;50.872;4.312;2023-08-12T03:59:19;20.80;99.90
22112;DHT22;11222;50.872;4.312;2023-08-12T04:01:45;20.70;99.90
22112;DHT22;11222;50.872;4.312;2023-08-12T04:04:11;20.70;99.90
22112;DHT22;11222;50.872;4.312;2023-08-12T04:06:37;20.50;99.90
22112;DHT22;11222;50.872;4.312;2023-08-12T04:09:03;20.40;99.90
22112;DHT22;11222;50.872;4.312;2023-08-12T04:11:28;20.30;99.90
22112;DHT22;11222;50.872;4.312;2023-08-12T04:13:54;20.30;99.90
22112;DHT22;11222;50.872;4.312;2023-08-12T04:16:19;20.30;99.90
22112;DHT22;11222;50.872;4.312;2023-08-12T04:18:45;20.30;99.90
22112;DHT22;11222;50.872;4.312;2023-08-12T04:21:11;20.20;99.90
22112;DHT22;11222;50.872;4.312;2023-08-12T04:23:36;20.20;99.90
22112;DHT22;11222;50.872;4.312;2023-08-12T04:26:02;20.10;99.90
22112;DHT22;11222;50.872;4.312;2023-08-12T04:28:27;20.20;99.90
22112;DHT22;11222;50.872;4.312;2023-08-12T04:30:53;20.10;99.90
22112;DHT22;11222;50.872;4.312;2023-08-12T04:33:19;20.10;99.90
22112;DHT22;11222;50.872;4.312;2023-08-12T04:35:47;20.20;99.90
22112;DHT22;11222;50.872;4.312;2023-08-12T04:38:13;20.10;99.90
22112;DHT22;11222;50.872;4.312;2023-08-12T04:40:39;20.20;99.90
22112;DHT22;11222;50.872;4.312;2023-08-12T04:43:05;20.10;99.90
22112;DHT22;11222;50.872;4.312;2023-08-12T04:45:31;20.20;99.90
22112;DHT22;11222;50.872;4.312;2023-08-12T04:47:57;20.20;99.90
22112;DHT22;11222;50.872;4.312;2023-08-12T04:50:23;20.20;99.90
22112;DHT22;11222;50.872;4.312;2023-08-12T04:52:49;20.20;99.90
22112;DHT22;11222;50.872;4.312;2023-08-12T04:55:14;20.20;99.90
22112;DHT22;11222;50.872;4.312;2023-08-12T04:57:40;20.20;99.90
22112;DHT22;11222;50.872;4.312;2023-08-12T05:00:06;20.20;99.90
22112;DHT22;11222;50.872;4.312;2023-08-12T05:02:35;20.20;99.90
22112;DHT22;11222;50.872;4.312;2023-08-12T05:05:01;20.10;99.90
22112;DHT22;11222;50.872;4.312;2023-08-12T05:07:26;20.10;99.90
22112;DHT22;11222;50.872;4.312;2023-08-12T05:09:52;20.10;99.90
22112;DHT22;11222;50.872;4.312;2023-08-12T05:12:18;20.10;99.90
22112;DHT22;11222;50.872;4.312;2023-08-12T05:14:44;20.10;99.90
22112;DHT22;11222;50.872;4.312;2023-08-12T05:17:11;20.10;99.90
22112;DHT22;11222;50.872;4.312;2023-08-12T05:19:37;20.20;99.90
22112;DHT22;11222;50.872;4.312;2023-08-12T05:22:03;20.20;99.90
22112;DHT22;11222;50.872;4.312;2023-08-12T05:24:28;20.30;99.90
22112;DHT22;11222;50.872;4.312;2023-08-12T05:26:54;20.30;99.90
22112;DHT22;11222;50.872;4.312;2023-08-12T05:29:19;20.20;99.90
22112;DHT22;11222;50.872;4.312;2023-08-12T05:31:45;20.20;99.90
22112;DHT22;11222;50.872;4.312;2023-08-12T05:34:11;20.20;99.90
22112;DHT22;11222;50.872;4.312;2023-08-12T05:36:36;20.20;99.90
22112;DHT22;11222;50.872;4.312;2023-08-12T05:39:02;20.20;99.90
22112;DHT22;11222;50.872;4.312;2023-08-12T05:41:28;20.20;99.90
22112;DHT22;11222;50.872;4.312;2023-08-12T05:43:54;20.10;99.90
22112;DHT22;11222;50.872;4.312;2023-08-12T05:46:20;20.10;99.90
22112;DHT22;11222;50.872;4.312;2023-08-12T05:48:46;20.10;99.90
22112;DHT22;11222;50.872;4.312;2023-08-12T05:51:11;20.20;99.90
22112;DHT22;11222;50.872;4.312;2023-08-12T05:53:37;20.20;99.90
22112;DHT22;11222;50.872;4.312;2023-08-12T05:56:03;20.10;99.90
22112;DHT22;11222;50.872;4.312;2023-08-12T05:58:29;20.20;99.90
22112;DHT22;11222;50.872;4.312;2023-08-12T06:00:54;20.10;99.90
22112;DHT22;11222;50.872;4.312;2023-08-12T06:03:20;20.20;99.90
22112;DHT22;11222;50.872;4.312;2023-08-12T06:05:46;20.20;99.90
22112;DHT22;11222;50.872;4.312;2023-08-12T06:08:13;20.20;99.90
22112;DHT22;11222;50.872;4.312;2023-08-12T06:10:38;20.20;99.90
22112;DHT22;11222;50.872;4.312;2023-08-12T06:13:04;20.20;99.90
22112;DHT22;11222;50.872;4.312;2023-08-12T06:15:30;20.20;99.90
22112;DHT22;11222;50.872;4.312;2023-08-12T06:17:56;20.20;99.90
22112;DHT22;11222;50.872;4.312;2023-08-12T06:20:23;20.20;99.90
22112;DHT22;11222;50.872;4.312;2023-08-12T06:22:50;20.20;99.90
22112;DHT22;11222;50.872;4.312;2023-08-12T06:25:16;20.30;99.90
22112;DHT22;11222;50.872;4.312;2023-08-12T06:27:41;20.30;99.90
22112;DHT22;11222;50.872;4.312;2023-08-12T06:30:08;20.30;99.90
22112;DHT22;11222;50.872;4.312;2023-08-12T06:32:34;20.30;99.90
22112;DHT22;11222;50.872;4.312;2023-08-12T06:35:00;20.40;99.90
22112;DHT22;11222;50.872;4.312;2023-08-12T06:37:26;20.40;99.90
22112;DHT22;11222;50.872;4.312;2023-08-12T06:39:51;20.40;99.90
22112;DHT22;11222;50.872;4.312;2023-08-12T06:42:17;20.50;99.90
22112;DHT22;11222;50.872;4.312;2023-08-12T06:44:42;20.50;99.90
22112;DHT22;11222;50.872;4.312;2023-08-12T06:47:08;20.50;99.90
22112;DHT22;11222;50.872;4.312;2023-08-12T06:49:34;20.60;99.90
22112;DHT22;11222;50.872;4.312;2023-08-12T06:51:59;20.60;99.90
22112;DHT22;11222;50.872;4.312;2023-08-12T06:54:25;20.60;99.90
22112;DHT22;11222;50.872;4.312;2023-08-12T06:56:51;20.60;99.90
22112;DHT22;11222;50.872;4.312;2023-08-12T06:59:17;20.50;99.90
22112;DHT22;11222;50.872;4.312;2023-08-12T07:01:43;20.30;99.90
22112;DHT22;11222;50.872;4.312;2023-08-12T07:04:08;20.00;99.90
22112;DHT22;11222;50.872;4.312;2023-08-12T07:06:34;19.90;99.90
22112;DHT22;11222;50.872;4.312;2023-08-12T07:09:00;19.70;99.90
22112;DHT22;11222;50.872;4.312;2023-08-12T07:11:25;19.50;99.90
22112;DHT22;11222;50.872;4.312;2023-08-12T07:13:51;19.40;99.90
22112;DHT22;11222;50.872;4.312;2023-08-12T07:16:17;19.30;99.90
22112;DHT22;11222;50.872;4.312;2023-08-12T07:18:42;19.40;99.90
22112;DHT22;11222;50.872;4.312;2023-08-12T07:21:08;19.20;99.90
22112;DHT22;11222;50.872;4.312;2023-08-12T07:23:34;19.10;99.90
22112;DHT22;11222;50.872;4.312;2023-08-12T07:26:00;19.10;99.90
22112;DHT22;11222;50.872;4.312;2023-08-12T07:28:25;19.00;99.90
22112;DHT22;11222;50.872;4.312;2023-08-12T07:30:51;19.00;99.90
22112;DHT22;11222;50.872;4.312;2023-08-12T07:33:18;19.10;99.90
22112;DHT22;11222;50.872;4.312;2023-08-12T07:35:43;19.20;99.90
22112;DHT22;11222;50.872;4.312;2023-08-12T07:38:09;19.30;99.90
22112;DHT22;11222;50.872;4.312;2023-08-12T07:40:35;19.20;99.90
22112;DHT22;11222;50.872;4.312;2023-08-12T07:43:00;19.20;99.90
22112;DHT22;11222;50.872;4.312;2023-08-12T07:45:26;19.30;99.90
22112;DHT22;11222;50.872;4.312;2023-08-12T07:47:52;19.50;99.90
22112;DHT22;11222;50.872;4.312;2023-08-12T07:50:18;19.70;99.90
22112;DHT22;11222;50.872;4.312;2023-08-12T07:52:43;20.00;99.90
22112;DHT22;11222;50.872;4.312;2023-08-12T07:55:09;20.10;99.90
22112;DHT22;11222;50.872;4.312;2023-08-12T07:57:35;20.10;99.90
22112;DHT22;11222;50.872;4.312;2023-08-12T08:00:00;20.20;99.90
22112;DHT22;11222;50.872;4.312;2023-08-12T08:02:26;20.20;99.90
22112;DHT22;11222;50.872;4.312;2023-08-12T08:04:52;20.00;99.90
22112;DHT22;11222;50.872;4.312;2023-08-12T08:07:18;20.00;99.90
22112;DHT22;11222;50.872;4.312;2023-08-12T08:09:43;19.80;99.90
22112;DHT22;11222;50.872;4.312;2023-08-12T08:12:10;19.80;99.90
22112;DHT22;11222;50.872;4.312;2023-08-12T08:14:36;19.80;99.90
22112;DHT22;11222;50.872;4.312;2023-08-12T08:17:02;19.80;99.90
22112;DHT22;11222;50.872;4.312;2023-08-12T08:19:29;19.90;99.90
22112;DHT22;11222;50.872;4.312;2023-08-12T08:21:54;20.10;99.90
22112;DHT22;11222;50.872;4.312;2023-08-12T08:24:20;20.20;99.90
22112;DHT22;11222;50.872;4.312;2023-08-12T08:26:46;20.30;99.90
22112;DHT22;11222;50.872;4.312;2023-08-12T08:29:12;20.30;99.90
22112;DHT22;11222;50.872;4.312;2023-08-12T08:31:38;20.10;99.90
22112;DHT22;11222;50.872;4.312;2023-08-12T08:34:04;20.30;99.90
22112;DHT22;11222;50.872;4.312;2023-08-12T08:36:30;20.40;99.90
22112;DHT22;11222;50.872;4.312;2023-08-12T08:38:56;20.40;99.90
22112;DHT22;11222;50.872;4.312;2023-08-12T08:41:21;20.50;99.90
22112;DHT22;11222;50.872;4.312;2023-08-12T08:43:52;20.70;99.90
22112;DHT22;11222;50.872;4.312;2023-08-12T08:46:20;20.90;99.90
22112;DHT22;11222;50.872;4.312;2023-08-12T08:48:47;20.70;99.90
22112;DHT22;11222;50.872;4.312;2023-08-12T08:51:14;20.50;99.90
22112;DHT22;11222;50.872;4.312;2023-08-12T08:53:41;20.50;99.90
22112;DHT22;11222;50.872;4.312;2023-08-12T08:56:07;20.70;99.90
22112;DHT22;11222;50.872;4.312;2023-08-12T08:58:33;20.90;99.90
22112;DHT22;11222;50.872;4.312;2023-08-12T09:00:59;21.10;99.90
22112;DHT22;11222;50.872;4.312;2023-08-12T09:03:26;21.50;99.90
22112;DHT22;11222;50.872;4.312;2023-08-12T09:05:53;21.50;99.90
22112;DHT22;11222;50.872;4.312;2023-08-12T09:08:21;21.30;99.90
22112;DHT22;11222;50.872;4.312;2023-08-12T09:10:48;21.10;99.90
22112;DHT22;11222;50.872;4.312;2023-08-12T09:13:14;20.90;99.90
22112;DHT22;11222;50.872;4.312;2023-08-12T09:15:40;21.10;99.90
22112;DHT22;11222;50.872;4.312;2023-08-12T09:18:06;21.10;99.90
22112;DHT22;11222;50.872;4.312;2023-08-12T09:20:35;21.30;99.90
22112;DHT22;11222;50.872;4.312;2023-08-12T09:23:02;21.40;99.90
22112;DHT22;11222;50.872;4.312;2023-08-12T09:25:28;21.40;99.90
22112;DHT22;11222;50.872;4.312;2023-08-12T09:28:00;21.40;99.90
22112;DHT22;11222;50.872;4.312;2023-08-12T09:30:30;21.50;99.90
22112;DHT22;11222;50.872;4.312;2023-08-12T09:33:01;21.30;99.90
22112;DHT22;11222;50.872;4.312;2023-08-12T09:35:39;21.10;99.90
22112;DHT22;11222;50.872;4.312;2023-08-12T09:38:12;21.20;99.90
22112;DHT22;11222;50.872;4.312;2023-08-12T09:40:38;21.40;99.90
22112;DHT22;11222;50.872;4.312;2023-08-12T09:43:04;21.70;99.90
22112;DHT22;11222;50.872;4.312;2023-08-12T09:45:31;21.70;99.90
22112;DHT22;11222;50.872;4.312;2023-08-12T09:47:57;21.40;99.90
22112;DHT22;11222;50.872;4.312;2023-08-12T09:50:23;21.40;99.90
22112;DHT22;11222;50.872;4.312;2023-08-12T09:52:51;21.30;99.90
22112;DHT22;11222;50.872;4.312;2023-08-12T09:55:18;21.40;99.90
22112;DHT22;11222;50.872;4.312;2023-08-12T09:57:44;21.80;99.90
22112;DHT22;11222;50.872;4.312;2023-08-12T10:00:13;22.00;99.90
22112;DHT22;11222;50.872;4.312;2023-08-12T10:02:44;21.80;99.90
22112;DHT22;11222;50.872;4.312;2023-08-12T10:05:13;22.00;99.90
22112;DHT22;11222;50.872;4.312;2023-08-12T10:07:42;22.10;99.90
22112;DHT22;11222;50.872;4.312;2023-08-12T10:10:09;22.50;99.90
22112;DHT22;11222;50.872;4.312;2023-08-12T10:12:36;23.20;99.90
22112;DHT22;11222;50.872;4.312;2023-08-12T10:15:05;23.70;99.90
22112;DHT22;11222;50.872;4.312;2023-08-12T10:17:31;24.10;99.90
22112;DHT22;11222;50.872;4.312;2023-08-12T10:19:57;24.50;99.90
22112;DHT22;11222;50.872;4.312;2023-08-12T10:22:25;24.50;99.90
22112;DHT22;11222;50.872;4.312;2023-08-12T10:24:51;24.40;99.90
22112;DHT22;11222;50.872;4.312;2023-08-12T10:27:18;24.20;99.90
22112;DHT22;11222;50.872;4.312;2023-08-12T10:29:44;24.30;99.90
22112;DHT22;11222;50.872;4.312;2023-08-12T10:32:09;25.50;99.90
22112;DHT22;11222;50.872;4.312;2023-08-12T10:34:35;25.20;99.90
22112;DHT22;11222;50.872;4.312;2023-08-12T10:37:02;25.60;99.90
22112;DHT22;11222;50.872;4.312;2023-08-12T10:39:29;26.60;99.90
22112;DHT22;11222;50.872;4.312;2023-08-12T10:41:56;28.40;99.90
22112;DHT22;11222;50.872;4.312;2023-08-12T10:44:27;28.90;99.90
22112;DHT22;11222;50.872;4.312;2023-08-12T10:46:53;30.40;99.90
22112;DHT22;11222;50.872;4.312;2023-08-12T10:49:21;30.30;99.90
22112;DHT22;11222;50.872;4.312;2023-08-12T11:02:20;29.40;99.90
22112;DHT22;11222;50.872;4.312;2023-08-12T11:08:11;29.00;99.90
22112;DHT22;11222;50.872;4.312;2023-08-12T11:10:20;29.40;99.90
22112;DHT22;11222;50.872;4.312;2023-08-12T11:17:59;29.70;99.90
22112;DHT22;11222;50.872;4.312;2023-08-12T11:20:25;29.20;99.90
22112;DHT22;11222;50.872;4.312;2023-08-12T11:22:53;27.60;99.90
22112;DHT22;11222;50.872;4.312;2023-08-12T11:25:19;28.20;99.90
22112;DHT22;11222;50.872;4.312;2023-08-12T11:27:46;28.50;99.90
22112;DHT22;11222;50.872;4.312;2023-08-12T11:30:15;28.50;99.90
22112;DHT22;11222;50.872;4.312;2023-08-12T11:32:42;27.40;99.90
22112;DHT22;11222;50.872;4.312;2023-08-12T11:35:09;26.30;99.90
22112;DHT22;11222;50.872;4.312;2023-08-12T11:37:39;26.70;99.90
22112;DHT22;11222;50.872;4.312;2023-08-12T11:40:07;27.60;99.90
22112;DHT22;11222;50.872;4.312;2023-08-12T11:42:35;26.70;99.90
22112;DHT22;11222;50.872;4.312;2023-08-12T11:45:03;26.60;99.90
22112;DHT22;11222;50.872;4.312;2023-08-12T11:47:28;27.90;99.90
22112;DHT22;11222;50.872;4.312;2023-08-12T11:49:54;28.20;99.90
22112;DHT22;11222;50.872;4.312;2023-08-12T11:52:20;27.20;99.90
22112;DHT22;11222;50.872;4.312;2023-08-12T11:54:47;27.40;99.90
22112;DHT22;11222;50.872;4.312;2023-08-12T11:57:13;28.50;99.90
22112;DHT22;11222;50.872;4.312;2023-08-12T11:59:39;29.50;99.90
22112;DHT22;11222;50.872;4.312;2023-08-12T12:02:04;30.90;99.90
22112;DHT22;11222;50.872;4.312;2023-08-12T12:04:31;31.50;95.70
22112;DHT22;11222;50.872;4.312;2023-08-12T12:06:57;30.60;95.20
22112;DHT22;11222;50.872;4.312;2023-08-12T12:09:23;30.00;98.90
22112;DHT22;11222;50.872;4.312;2023-08-12T12:11:52;29.00;99.90
22112;DHT22;11222;50.872;4.312;2023-08-12T12:14:20;27.60;99.90
22112;DHT22;11222;50.872;4.312;2023-08-12T12:16:46;26.90;99.90
22112;DHT22;11222;50.872;4.312;2023-08-12T12:19:21;25.90;99.90
22112;DHT22;11222;50.872;4.312;2023-08-12T12:21:49;25.60;99.90
22112;DHT22;11222;50.872;4.312;2023-08-12T12:24:15;25.10;99.90
22112;DHT22;11222;50.872;4.312;2023-08-12T12:26:41;24.70;99.90
22112;DHT22;11222;50.872;4.312;2023-08-12T12:29:07;24.50;99.90
22112;DHT22;11222;50.872;4.312;2023-08-12T12:31:35;24.40;99.90
22112;DHT22;11222;50.872;4.312;2023-08-12T12:34:04;24.60;99.90
22112;DHT22;11222;50.872;4.312;2023-08-12T12:36:34;24.70;99.90
22112;DHT22;11222;50.872;4.312;2023-08-12T12:39:01;24.50;99.90
22112;DHT22;11222;50.872;4.312;2023-08-12T12:41:27;24.60;99.90
22112;DHT22;11222;50.872;4.312;2023-08-12T12:43:53;24.50;99.90
22112;DHT22;11222;50.872;4.312;2023-08-12T12:46:19;24.30;99.90
22112;DHT22;11222;50.872;4.312;2023-08-12T12:48:44;24.30;99.90
22112;DHT22;11222;50.872;4.312;2023-08-12T12:51:12;24.50;99.90
22112;DHT22;11222;50.872;4.312;2023-08-12T12:53:38;24.50;99.90
22112;DHT22;11222;50.872;4.312;2023-08-12T12:56:04;24.50;99.90
22112;DHT22;11222;50.872;4.312;2023-08-12T12:58:31;24.50;99.90
22112;DHT22;11222;50.872;4.312;2023-08-12T13:00:58;24.50;99.90
22112;DHT22;11222;50.872;4.312;2023-08-12T13:03:24;24.60;99.90
22112;DHT22;11222;50.872;4.312;2023-08-12T13:05:50;24.80;99.90
22112;DHT22;11222;50.872;4.312;2023-08-12T13:08:16;24.90;99.90
22112;DHT22;11222;50.872;4.312;2023-08-12T13:10:41;24.90;99.90
22112;DHT22;11222;50.872;4.312;2023-08-12T13:13:07;24.70;99.90
22112;DHT22;11222;50.872;4.312;2023-08-12T13:15:34;24.60;99.90
22112;DHT22;11222;50.872;4.312;2023-08-12T13:18:00;24.60;99.90
22112;DHT22;11222;50.872;4.312;2023-08-12T13:20:25;24.70;99.90
22112;DHT22;11222;50.872;4.312;2023-08-12T13:22:51;24.70;99.90
22112;DHT22;11222;50.872;4.312;2023-08-12T13:25:17;24.80;99.90
22112;DHT22;11222;50.872;4.312;2023-08-12T13:27:42;24.60;99.90
22112;DHT22;11222;50.872;4.312;2023-08-12T13:30:10;24.70;99.90
22112;DHT22;11222;50.872;4.312;2023-08-12T13:32:38;24.60;99.90
22112;DHT22;11222;50.872;4.312;2023-08-12T13:35:04;24.80;99.90
22112;DHT22;11222;50.872;4.312;2023-08-12T13:37:35;24.70;99.90
22112;DHT22;11222;50.872;4.312;2023-08-12T13:40:00;24.90;99.90
22112;DHT22;11222;50.872;4.312;2023-08-12T13:42:26;25.10;99.90
22112;DHT22;11222;50.872;4.312;2023-08-12T13:44:52;25.10;99.90
22112;DHT22;11222;50.872;4.312;2023-08-12T13:47:18;25.10;99.90
22112;DHT22;11222;50.872;4.312;2023-08-12T13:49:44;25.00;99.90
22112;DHT22;11222;50.872;4.312;2023-08-12T13:52:09;25.10;99.90
22112;DHT22;11222;50.872;4.312;2023-08-12T13:54:35;25.10;99.90
22112;DHT22;11222;50.872;4.312;2023-08-12T13:57:00;25.00;99.90
22112;DHT22;11222;50.872;4.312;2023-08-12T13:59:26;25.00;99.90
22112;DHT22;11222;50.872;4.312;2023-08-12T14:01:52;24.90;99.90
22112;DHT22;11222;50.872;4.312;2023-08-12T14:04:17;24.80;99.90
22112;DHT22;11222;50.872;4.312;2023-08-12T14:06:43;24.70;99.90
22112;DHT22;11222;50.872;4.312;2023-08-12T14:09:09;24.60;99.90
22112;DHT22;11222;50.872;4.312;2023-08-12T14:11:36;24.60;99.90
22112;DHT22;11222;50.872;4.312;2023-08-12T14:14:02;24.70;99.90
22112;DHT22;11222;50.872;4.312;2023-08-12T14:16:29;24.90;99.90
22112;DHT22;11222;50.872;4.312;2023-08-12T14:18:54;25.00;99.90
22112;DHT22;11222;50.872;4.312;2023-08-12T14:21:20;25.00;99.90
22112;DHT22;11222;50.872;4.312;2023-08-12T14:23:45;25.20;99.90
22112;DHT22;11222;50.872;4.312;2023-08-12T14:26:11;25.30;99.90
22112;DHT22;11222;50.872;4.312;2023-08-12T14:28:37;25.00;99.90
22112;DHT22;11222;50.872;4.312;2023-08-12T14:31:02;25.30;99.90
22112;DHT22;11222;50.872;4.312;2023-08-12T14:33:29;25.50;99.90
22112;DHT22;11222;50.872;4.312;2023-08-12T14:35:57;25.60;99.90
22112;DHT22;11222;50.872;4.312;2023-08-12T14:38:23;25.60;99.90
22112;DHT22;11222;50.872;4.312;2023-08-12T14:40:49;25.40;99.90
22112;DHT22;11222;50.872;4.312;2023-08-12T14:43:15;25.40;99.90
22112;DHT22;11222;50.872;4.312;2023-08-12T14:45:41;25.30;99.90
22112;DHT22;11222;50.872;4.312;2023-08-12T14:48:06;25.40;99.90
22112;DHT22;11222;50.872;4.312;2023-08-12T14:50:32;25.10;99.90
22112;DHT22;11222;50.872;4.312;2023-08-12T14:52:58;25.20;99.90
22112;DHT22;11222;50.872;4.312;2023-08-12T14:55:24;25.10;99.90
22112;DHT22;11222;50.872;4.312;2023-08-12T14:57:50;24.80;99.90
22112;DHT22;11222;50.872;4.312;2023-08-12T15:00:16;24.80;99.90
22112;DHT22;11222;50.872;4.312;2023-08-12T15:02:42;24.80;99.90
22112;DHT22;11222;50.872;4.312;2023-08-12T15:05:07;25.00;99.90
22112;DHT22;11222;50.872;4.312;2023-08-12T15:07:33;25.20;99.90
22112;DHT22;11222;50.872;4.312;2023-08-12T15:09:59;25.30;99.90
22112;DHT22;11222;50.872;4.312;2023-08-12T15:12:25;24.80;99.90
22112;DHT22;11222;50.872;4.312;2023-08-12T15:14:52;24.80;99.90
22112;DHT22;11222;50.872;4.312;2023-08-12T15:17:18;24.90;99.90
22112;DHT22;11222;50.872;4.312;2023-08-12T15:19:44;24.90;99.90
22112;DHT22;11222;50.872;4.312;2023-08-12T15:22:09;24.60;99.90
22112;DHT22;11222;50.872;4.312;2023-08-12T15:24:35;24.70;99.90
22112;DHT22;11222;50.872;4.312;2023-08-12T15:27:00;24.80;99.90
22112;DHT22;11222;50.872;4.312;2023-08-12T15:29:26;24.80;99.90
22112;DHT22;11222;50.872;4.312;2023-08-12T15:31:52;24.90;99.90
22112;DHT22;11222;50.872;4.312;2023-08-12T15:34:17;24.70;99.90
22112;DHT22;11222;50.872;4.312;2023-08-12T15:36:43;24.60;99.90
22112;DHT22;11222;50.872;4.312;2023-08-12T15:39:10;24.80;99.90
22112;DHT22;11222;50.872;4.312;2023-08-12T15:41:44;25.10;99.90
22112;DHT22;11222;50.872;4.312;2023-08-12T15:44:13;25.00;99.90